createdAt,value
2023-01-27T00:00:54.943Z,26.30
2023-01-27T00:05:52.039Z,24.60
2023-01-27T00:08:20.258Z,26.80
2023-01-27T00:10:47.977Z,27.50
2023-01-27T00:13:15.565Z,28.00
2023-01-27T00:15:43.148Z,27.60
2023-01-27T00:18:10.763Z,26.30
2023-01-27T00:20:38.335Z,26.50
2023-01-27T00:23:05.902Z,27.70
2023-01-27T00:25:33.515Z,27.00
2023-01-27T00:28:01.083Z,26.70
2023-01-27T00:30:28.664Z,29.90
2023-01-27T00:32:56.244Z,30.80
2023-01-27T00:35:24.140Z,32.30
2023-01-27T00:37:51.770Z,29.30
2023-01-27T00:40:19.390Z,30.70
2023-01-27T00:42:47.001Z,29.30
2023-01-27T00:45:14.669Z,28.90
2023-01-27T00:47:42.245Z,30.50
2023-01-27T00:50:10.762Z,29.40
2023-01-27T00:52:38.541Z,30.40
2023-01-27T00:55:07.153Z,31.00
2023-01-27T00:57:34.729Z,28.30
2023-01-27T01:00:02.588Z,29.90
2023-01-27T01:02:30.290Z,29.90
2023-01-27T01:04:58.320Z,28.40
2023-01-27T01:07:25.935Z,28.60
2023-01-27T01:09:53.518Z,29.10
2023-01-27T01:12:21.217Z,29.20
2023-01-27T01:14:48.777Z,28.80
2023-01-27T01:17:16.414Z,28.70
2023-01-27T01:19:44.027Z,29.50
2023-01-27T01:22:11.599Z,29.40
2023-01-27T01:24:39.156Z,27.50
2023-01-27T01:27:06.711Z,29.30
2023-01-27T01:29:34.310Z,26.70
2023-01-27T01:32:01.913Z,25.10
2023-01-27T01:34:29.505Z,25.00
2023-01-27T01:36:57.058Z,24.50
2023-01-27T01:39:24.623Z,25.50
2023-01-27T01:41:52.210Z,24.90
2023-01-27T01:44:25.341Z,23.00
2023-01-27T01:46:53.112Z,24.30
2023-01-27T01:49:26.257Z,24.60
2023-01-27T01:52:00.247Z,24.40
2023-01-27T01:54:33.391Z,25.90
2023-01-27T01:57:10.801Z,26.70
2023-01-27T01:59:45.815Z,26.00
2023-01-27T02:02:19.723Z,27.00
2023-01-27T02:04:56.264Z,25.20
2023-01-27T02:07:38.786Z,26.20
2023-01-27T02:10:06.673Z,25.50
2023-01-27T02:12:34.267Z,26.80
2023-01-27T02:15:01.889Z,24.60
2023-01-27T02:17:29.566Z,25.20
2023-01-27T02:20:12.131Z,23.80
2023-01-27T02:22:47.506Z,21.70
2023-01-27T02:25:29.819Z,22.60
2023-01-27T02:27:57.410Z,22.90
2023-01-27T02:30:25.222Z,23.60
2023-01-27T02:32:52.916Z,23.50
2023-01-27T02:35:27.639Z,21.70
2023-01-27T02:37:57.548Z,21.30
2023-01-27T02:40:27.152Z,21.40
2023-01-27T02:42:57.134Z,21.80
2023-01-27T02:45:24.921Z,24.80
2023-01-27T02:47:52.581Z,21.50
2023-01-27T02:50:20.212Z,20.90
2023-01-27T02:52:47.797Z,20.90
2023-01-27T02:55:15.482Z,21.90
2023-01-27T02:57:43.101Z,21.10
2023-01-27T03:00:11.459Z,21.40
2023-01-27T03:02:39.291Z,23.50
2023-01-27T03:05:07.218Z,23.10
2023-01-27T03:07:34.782Z,21.70
2023-01-27T03:10:02.325Z,23.00
2023-01-27T03:12:29.931Z,21.80
2023-01-27T03:14:57.511Z,22.10
2023-01-27T03:17:25.074Z,23.00
2023-01-27T03:19:52.714Z,21.60
2023-01-27T03:22:20.343Z,20.80
2023-01-27T03:24:47.904Z,22.90
2023-01-27T03:27:15.469Z,22.70
2023-01-27T03:29:43.051Z,20.60
2023-01-27T03:32:10.608Z,21.10
2023-01-27T03:34:38.190Z,23.20
2023-01-27T03:37:05.838Z,21.70
2023-01-27T03:39:33.445Z,21.60
2023-01-27T03:42:01.010Z,20.90
2023-01-27T03:44:28.597Z,21.90
2023-01-27T03:46:56.297Z,20.70
2023-01-27T03:49:23.996Z,21.40
2023-01-27T03:51:51.756Z,21.80
2023-01-27T03:54:19.332Z,21.70
2023-01-27T03:56:46.890Z,22.50
2023-01-27T03:59:14.781Z,23.10
2023-01-27T04:01:42.420Z,22.40
2023-01-27T04:04:11.315Z,21.20
2023-01-27T04:06:41.125Z,21.80
2023-01-27T04:09:10.061Z,22.30
2023-01-27T04:11:37.704Z,22.40
2023-01-27T04:14:06.604Z,19.40
2023-01-27T04:16:34.905Z,21.00
2023-01-27T04:19:04.542Z,22.00
2023-01-27T04:21:32.335Z,20.80
2023-01-27T04:24:00.491Z,20.60
2023-01-27T04:26:28.920Z,21.20
2023-01-27T04:28:56.548Z,21.00
2023-01-27T04:31:24.119Z,20.70
2023-01-27T04:33:51.806Z,20.50
2023-01-27T04:36:19.375Z,21.80
2023-01-27T04:38:46.944Z,20.40
2023-01-27T04:41:14.492Z,18.90
2023-01-27T04:43:42.011Z,20.20
2023-01-27T04:46:09.698Z,18.70
2023-01-27T04:48:37.337Z,17.50
2023-01-27T04:51:05.026Z,19.00
2023-01-27T04:53:32.612Z,16.50
2023-01-27T04:56:05.919Z,14.30
2023-01-27T04:58:33.769Z,15.40
2023-01-27T05:01:01.317Z,13.20
2023-01-27T05:03:28.896Z,15.80
2023-01-27T05:05:56.553Z,13.70
2023-01-27T05:08:24.162Z,14.10
2023-01-27T05:10:51.728Z,14.10
2023-01-27T05:13:19.314Z,14.80
2023-01-27T05:15:47.045Z,13.30
2023-01-27T05:18:15.165Z,13.70
2023-01-27T05:20:42.704Z,12.80
2023-01-27T05:23:10.212Z,12.90
2023-01-27T05:25:37.832Z,11.70
2023-01-27T05:28:05.421Z,13.00
2023-01-27T05:30:33.033Z,12.20
2023-01-27T05:33:00.632Z,11.20
2023-01-27T05:35:28.187Z,12.30
2023-01-27T05:37:55.759Z,13.00
2023-01-27T05:40:23.330Z,11.70
2023-01-27T05:42:54.270Z,10.70
2023-01-27T05:45:21.953Z,11.80
2023-01-27T05:47:50.551Z,13.70
2023-01-27T05:50:18.456Z,11.70
2023-01-27T05:52:46.115Z,12.00
2023-01-27T05:55:14.064Z,11.20
2023-01-27T05:57:41.867Z,10.00
2023-01-27T06:00:10.139Z,12.70
2023-01-27T06:02:37.780Z,11.00
2023-01-27T06:05:05.829Z,11.80
2023-01-27T06:07:33.379Z,9.40
2023-01-27T06:10:00.893Z,9.90
2023-01-27T06:12:28.450Z,10.60
2023-01-27T06:14:55.986Z,12.70
2023-01-27T06:17:23.526Z,10.80
2023-01-27T06:19:51.053Z,11.10
2023-01-27T06:22:18.563Z,11.80
2023-01-27T06:24:46.072Z,11.70
2023-01-27T06:27:13.581Z,10.90
2023-01-27T06:29:41.088Z,12.50
2023-01-27T06:32:08.672Z,10.80
2023-01-27T06:34:36.300Z,11.10
2023-01-27T06:37:04.007Z,11.60
2023-01-27T06:39:31.568Z,12.50
2023-01-27T06:41:59.203Z,11.70
2023-01-27T06:44:26.748Z,10.30
2023-01-27T06:46:54.287Z,11.60
2023-01-27T06:49:22.060Z,10.50
2023-01-27T06:51:49.638Z,9.80
2023-01-27T06:54:17.360Z,10.80
2023-01-27T06:56:44.972Z,10.80
2023-01-27T06:59:12.637Z,13.40
2023-01-27T07:01:40.204Z,11.90
2023-01-27T07:04:07.862Z,12.00
2023-01-27T07:06:35.484Z,12.50
2023-01-27T07:09:03.043Z,12.30
2023-01-27T07:11:30.608Z,14.50
2023-01-27T07:13:58.128Z,14.40
2023-01-27T07:16:25.934Z,13.70
2023-01-27T07:18:53.498Z,13.70
2023-01-27T07:21:21.132Z,13.50
2023-01-27T07:23:48.674Z,13.70
2023-01-27T07:26:24.915Z,14.10
2023-01-27T07:28:53.107Z,14.00
2023-01-27T07:31:20.736Z,13.80
2023-01-27T07:33:48.400Z,13.20
2023-01-27T07:36:15.972Z,13.20
2023-01-27T07:38:43.576Z,11.90
2023-01-27T07:41:11.169Z,13.20
2023-01-27T07:43:38.768Z,13.40
2023-01-27T07:46:06.520Z,9.90
2023-01-27T07:48:34.137Z,13.80
2023-01-27T07:51:01.703Z,12.10
2023-01-27T07:53:29.251Z,13.30
2023-01-27T07:55:59.625Z,13.50
2023-01-27T07:58:27.213Z,14.20
2023-01-27T08:00:54.874Z,13.40
2023-01-27T08:03:25.296Z,13.70
2023-01-27T08:05:52.877Z,14.00
2023-01-27T08:08:20.443Z,14.10
2023-01-27T08:10:47.979Z,12.80
2023-01-27T08:13:15.756Z,12.40
2023-01-27T08:15:43.435Z,12.30
2023-01-27T08:18:10.985Z,13.00
2023-01-27T08:20:38.580Z,13.00
2023-01-27T08:23:06.113Z,13.70
2023-01-27T08:25:33.770Z,11.70
2023-01-27T08:28:01.350Z,12.00
2023-01-27T08:30:28.940Z,13.50
2023-01-27T08:32:56.501Z,12.50
2023-01-27T08:35:24.201Z,12.90
2023-01-27T08:37:51.816Z,15.00
2023-01-27T08:40:19.375Z,13.90
2023-01-27T08:42:49.443Z,13.70
2023-01-27T08:45:17.139Z,13.90
2023-01-27T08:47:44.775Z,14.50
2023-01-27T08:50:12.862Z,12.80
2023-01-27T08:52:41.015Z,14.60
2023-01-27T08:55:08.759Z,16.40
2023-01-27T08:57:37.251Z,13.50
2023-01-27T09:00:11.197Z,14.80
2023-01-27T09:02:38.981Z,14.00
2023-01-27T09:05:06.796Z,14.80
2023-01-27T09:07:34.373Z,14.30
2023-01-27T09:10:14.099Z,13.90
2023-01-27T09:12:47.841Z,13.90
2023-01-27T09:15:15.527Z,14.10
2023-01-27T09:17:43.175Z,15.40
2023-01-27T09:20:12.139Z,14.70
2023-01-27T09:22:41.095Z,15.30
2023-01-27T09:25:14.801Z,12.00
2023-01-27T09:27:43.507Z,14.70
2023-01-27T09:30:13.759Z,11.30
2023-01-27T09:32:42.237Z,13.60
2023-01-27T09:35:10.286Z,14.70
2023-01-27T09:37:44.962Z,14.90
2023-01-27T09:40:38.576Z,15.50
2023-01-27T09:43:24.752Z,14.00
2023-01-27T09:46:23.136Z,15.50
2023-01-27T09:49:18.349Z,15.80
2023-01-27T09:52:23.387Z,14.10
2023-01-27T09:55:11.857Z,14.10
2023-01-27T09:57:51.973Z,15.60
2023-01-27T10:00:31.404Z,14.60
2023-01-27T10:03:04.757Z,15.70
2023-01-27T10:05:47.871Z,14.80
2023-01-27T10:08:50.801Z,13.70
2023-01-27T10:11:58.028Z,15.40
2023-01-27T10:14:38.834Z,14.50
2023-01-27T10:17:40.958Z,14.50
2023-01-27T10:20:26.846Z,15.30
2023-01-27T10:22:54.395Z,14.40
2023-01-27T10:25:39.525Z,13.70
2023-01-27T10:28:13.110Z,14.60
2023-01-27T10:30:51.178Z,15.10
2023-01-27T10:33:28.390Z,14.60
2023-01-27T10:36:03.501Z,13.80
2023-01-27T10:38:41.050Z,14.20
2023-01-27T10:41:27.392Z,14.80
2023-01-27T10:44:16.595Z,15.40
2023-01-27T10:49:14.319Z,13.10
2023-01-27T10:51:52.902Z,13.10
2023-01-27T10:54:45.832Z,13.30
2023-01-27T10:57:37.084Z,13.70
2023-01-27T11:03:22.200Z,13.90
2023-01-27T11:05:56.582Z,13.00
2023-01-27T11:08:31.920Z,14.30
2023-01-27T11:11:03.598Z,14.00
2023-01-27T11:13:32.470Z,13.20
2023-01-27T11:16:00.884Z,12.90
2023-01-27T11:18:30.544Z,12.20
2023-01-27T11:21:12.345Z,14.00
2023-01-27T11:23:43.316Z,13.10
2023-01-27T11:26:25.828Z,11.40
2023-01-27T11:29:17.640Z,13.30
2023-01-27T11:32:08.414Z,10.60
2023-01-27T11:34:45.894Z,12.30
2023-01-27T11:37:24.501Z,12.20
2023-01-27T11:39:52.149Z,12.30
2023-01-27T11:42:19.818Z,11.60
2023-01-27T11:44:51.196Z,11.90
2023-01-27T11:47:27.279Z,14.00
2023-01-27T11:49:57.475Z,13.20
2023-01-27T11:52:27.952Z,12.70
2023-01-27T11:57:25.716Z,12.60
2023-01-27T12:00:19.785Z,11.10
2023-01-27T12:03:03.453Z,12.40
2023-01-27T12:05:34.635Z,11.80
2023-01-27T12:08:05.107Z,11.00
2023-01-27T12:13:15.058Z,8.20
2023-01-27T12:15:51.377Z,11.00
2023-01-27T12:18:19.439Z,11.90
2023-01-27T12:20:56.563Z,13.40
2023-01-27T12:23:29.488Z,12.00
2023-01-27T12:26:02.612Z,13.70
2023-01-27T12:28:39.014Z,11.30
2023-01-27T12:31:18.045Z,10.90
2023-01-27T12:33:56.275Z,13.10
2023-01-27T12:36:24.874Z,11.70
2023-01-27T12:38:55.617Z,12.90
2023-01-27T12:41:27.132Z,12.80
2023-01-27T12:43:58.428Z,12.70
2023-01-27T12:46:28.269Z,11.70
2023-01-27T12:49:12.779Z,10.40
2023-01-27T12:51:51.063Z,12.50
2023-01-27T12:54:21.470Z,11.50
2023-01-27T12:56:51.855Z,11.40
2023-01-27T12:59:21.191Z,11.20
2023-01-27T13:02:18.013Z,10.50
2023-01-27T13:04:58.801Z,12.00
2023-01-27T13:07:32.026Z,11.60
2023-01-27T13:10:03.752Z,10.70
2023-01-27T13:12:48.735Z,10.20
2023-01-27T13:15:28.713Z,10.30
2023-01-27T13:18:11.677Z,9.70
2023-01-27T13:23:37.355Z,10.60
2023-01-27T13:26:04.901Z,8.80
2023-01-27T13:28:57.077Z,10.80
2023-01-27T13:31:42.882Z,9.90
2023-01-27T13:34:33.458Z,8.80
2023-01-27T13:37:09.921Z,8.40
2023-01-27T13:39:54.880Z,9.20
2023-01-27T13:42:33.350Z,9.20
2023-01-27T13:45:13.023Z,9.50
2023-01-27T13:47:50.931Z,7.80
2023-01-27T13:50:28.446Z,9.20
2023-01-27T13:52:58.753Z,8.90
2023-01-27T13:55:44.685Z,9.30
2023-01-27T13:58:46.094Z,9.40
2023-01-27T14:01:34.965Z,10.10
2023-01-27T14:04:41.351Z,8.70
2023-01-27T14:07:26.410Z,9.90
2023-01-27T14:10:27.844Z,7.80
2023-01-27T14:13:26.243Z,9.80
2023-01-27T14:16:36.384Z,8.20
2023-01-27T14:19:30.647Z,10.70
2023-01-27T14:22:31.255Z,10.70
2023-01-27T14:25:18.098Z,11.00
2023-01-27T14:28:01.723Z,10.20
2023-01-27T14:30:36.717Z,10.00
2023-01-27T14:33:09.896Z,10.70
2023-01-27T14:35:44.929Z,10.40
2023-01-27T14:38:42.744Z,10.60
2023-01-27T14:41:12.876Z,9.80
2023-01-27T14:44:03.075Z,10.70
2023-01-27T14:46:42.501Z,11.50
2023-01-27T14:49:44.070Z,11.70
2023-01-27T14:55:29.398Z,8.80
2023-01-27T14:58:18.287Z,10.30
2023-01-27T15:01:14.114Z,9.50
2023-01-27T15:03:50.756Z,10.10
2023-01-27T15:06:44.416Z,9.80
2023-01-27T15:09:27.975Z,9.90
2023-01-27T15:12:20.290Z,10.80
2023-01-27T15:15:13.124Z,10.70
2023-01-27T15:18:14.962Z,10.80
2023-01-27T15:21:11.642Z,10.50
2023-01-27T15:24:07.248Z,9.00
2023-01-27T15:26:37.494Z,11.20
2023-01-27T15:29:05.818Z,11.50
2023-01-27T15:34:24.715Z,10.70
2023-01-27T15:40:03.910Z,11.30
2023-01-27T15:45:46.481Z,8.70
2023-01-27T15:48:19.428Z,8.40
2023-01-27T15:51:02.936Z,10.80
2023-01-27T15:53:34.406Z,10.70
2023-01-27T15:59:05.059Z,11.30
2023-01-27T16:04:28.724Z,11.70
2023-01-27T16:07:02.854Z,9.10
2023-01-27T16:09:36.605Z,8.90
2023-01-27T16:12:32.024Z,9.10
2023-01-27T16:18:06.213Z,7.90
2023-01-27T16:23:52.768Z,5.90
2023-01-27T16:29:20.601Z,6.90
2023-01-27T16:32:01.043Z,6.10
2023-01-27T16:34:35.652Z,6.20
2023-01-27T16:37:28.616Z,6.30
2023-01-27T16:40:03.866Z,7.00
2023-01-27T16:42:40.889Z,6.50
2023-01-27T16:48:15.206Z,5.60
2023-01-27T16:50:44.019Z,5.60
2023-01-27T16:53:18.709Z,6.70
2023-01-27T16:56:05.515Z,7.40
2023-01-27T16:58:45.508Z,7.60
2023-01-27T17:01:27.901Z,7.70
2023-01-27T17:06:44.085Z,6.90
2023-01-27T17:12:40.312Z,7.30
2023-01-27T17:15:28.467Z,7.70
2023-01-27T17:17:57.775Z,7.60
2023-01-27T17:20:34.454Z,7.80
2023-01-27T17:23:07.431Z,8.40
2023-01-27T17:25:37.948Z,8.30
2023-01-27T17:30:43.338Z,8.50
2023-01-27T17:33:20.567Z,8.30
2023-01-27T17:35:53.576Z,9.70
2023-01-27T17:38:23.246Z,8.10
2023-01-27T17:43:48.990Z,8.50
2023-01-27T17:49:04.915Z,8.60
2023-01-27T17:51:39.854Z,10.70
2023-01-27T17:54:20.421Z,9.60
2023-01-27T17:56:52.075Z,9.30
2023-01-27T18:02:30.345Z,10.00
2023-01-27T18:07:30.788Z,9.00
2023-01-27T18:09:58.404Z,9.10
2023-01-27T18:12:35.359Z,9.50
2023-01-27T18:15:37.343Z,8.20
2023-01-27T18:18:29.277Z,10.10
2023-01-27T18:21:09.391Z,8.90
2023-01-27T18:26:38.368Z,9.20
2023-01-27T18:29:15.039Z,11.00
2023-01-27T18:31:55.888Z,10.10
2023-01-27T18:34:32.644Z,11.10
2023-01-27T18:37:24.197Z,10.90
2023-01-27T18:39:52.047Z,9.60
2023-01-27T18:45:14.559Z,8.10
2023-01-27T18:47:42.586Z,9.80
2023-01-27T18:50:15.137Z,9.20
2023-01-27T18:52:42.919Z,10.30
2023-01-27T18:55:30.175Z,9.60
2023-01-27T18:58:00.250Z,10.20
2023-01-27T19:03:00.781Z,11.30
2023-01-27T19:05:33.256Z,9.20
2023-01-27T19:08:02.176Z,11.20
2023-01-27T19:10:32.781Z,10.60
2023-01-27T19:15:55.833Z,8.00
2023-01-27T19:18:32.341Z,10.50
2023-01-27T19:21:00.878Z,8.40
2023-01-27T19:23:29.174Z,6.30
2023-01-27T19:26:04.814Z,7.40
2023-01-27T19:28:37.543Z,7.90
2023-01-27T19:33:51.487Z,11.00
2023-01-27T19:36:27.483Z,9.70
2023-01-27T19:39:09.499Z,10.10
2023-01-27T19:41:37.141Z,11.10
2023-01-27T19:46:53.405Z,9.40
2023-01-27T19:52:11.267Z,10.50
2023-01-27T19:54:39.143Z,11.10
2023-01-27T19:57:13.614Z,10.70
2023-01-27T19:59:41.513Z,9.90
2023-01-27T20:05:03.786Z,11.10
2023-01-27T20:07:31.337Z,11.90
2023-01-27T20:09:59.178Z,11.80
2023-01-27T20:12:29.974Z,10.80
2023-01-27T20:15:21.100Z,10.20
2023-01-27T20:17:49.010Z,9.50
2023-01-27T20:23:07.201Z,10.60
2023-01-27T20:25:43.758Z,11.60
2023-01-27T20:28:12.305Z,11.60
2023-01-27T20:30:41.331Z,12.00
2023-01-27T20:33:10.134Z,12.00
2023-01-27T20:35:37.767Z,10.90
2023-01-27T20:38:05.530Z,11.10
2023-01-27T20:40:34.242Z,10.60
2023-01-27T20:43:02.024Z,12.90
2023-01-27T20:45:29.774Z,13.00
2023-01-27T20:47:57.651Z,13.80
2023-01-27T20:50:26.339Z,11.80
2023-01-27T20:52:54.252Z,13.30
2023-01-27T20:55:22.231Z,10.30
2023-01-27T20:57:50.006Z,11.60
2023-01-27T21:00:20.192Z,11.30
2023-01-27T21:02:48.834Z,12.30
2023-01-27T21:05:17.063Z,10.80
2023-01-27T21:07:44.904Z,10.10
2023-01-27T21:10:12.612Z,14.10
2023-01-27T21:12:40.187Z,12.20
2023-01-27T21:15:08.483Z,12.10
2023-01-27T21:17:36.015Z,12.70
2023-01-27T21:20:05.239Z,12.30
2023-01-27T21:22:33.240Z,12.50
2023-01-27T21:25:00.785Z,13.60
2023-01-27T21:27:29.081Z,10.80
2023-01-27T21:29:56.788Z,14.30
2023-01-27T21:32:24.467Z,12.70
2023-01-27T21:34:52.436Z,12.80
2023-01-27T21:37:20.050Z,12.60
2023-01-27T21:39:47.626Z,12.70
2023-01-27T21:42:15.360Z,13.80
2023-01-27T21:44:43.057Z,12.30
2023-01-27T21:47:13.315Z,12.50
2023-01-27T21:49:43.495Z,13.10
2023-01-27T21:52:11.221Z,13.80
2023-01-27T21:54:38.816Z,13.90
2023-01-27T21:57:06.332Z,13.90
2023-01-27T21:59:33.847Z,13.40
2023-01-27T22:02:01.568Z,13.60
2023-01-27T22:04:29.153Z,12.90
2023-01-27T22:06:57.040Z,13.00
2023-01-27T22:09:24.803Z,14.50
2023-01-27T22:11:52.364Z,12.20
2023-01-27T22:14:19.905Z,13.40
2023-01-27T22:16:49.924Z,13.20
2023-01-27T22:19:17.642Z,12.20
2023-01-27T22:21:45.219Z,12.30
2023-01-27T22:24:12.969Z,11.90
2023-01-27T22:26:40.509Z,11.50
2023-01-27T22:29:08.437Z,12.90
2023-01-27T22:31:36.096Z,12.40
2023-01-27T22:34:03.777Z,11.50
2023-01-27T22:36:31.352Z,12.90
2023-01-27T22:38:59.132Z,10.30
2023-01-27T22:41:28.596Z,10.00
2023-01-27T22:43:56.289Z,11.80
2023-01-27T22:46:24.330Z,13.00
2023-01-27T22:48:51.940Z,13.90
2023-01-27T22:51:19.716Z,11.70
2023-01-27T22:53:47.451Z,10.60
2023-01-27T22:56:15.074Z,11.80
2023-01-27T22:58:42.635Z,10.20
2023-01-27T23:01:10.273Z,10.50
2023-01-27T23:03:37.935Z,10.00
2023-01-27T23:06:07.483Z,10.50
2023-01-27T23:08:35.880Z,12.20
2023-01-27T23:11:05.388Z,12.70
2023-01-27T23:13:34.455Z,10.30
2023-01-27T23:16:02.210Z,11.90
2023-01-27T23:18:29.850Z,12.20
2023-01-27T23:21:03.505Z,9.50
2023-01-27T23:23:31.307Z,11.90
2023-01-27T23:25:59.349Z,9.50
2023-01-27T23:28:27.270Z,9.50
2023-01-27T23:30:54.878Z,9.90
2023-01-27T23:33:22.598Z,10.50
2023-01-27T23:35:56.128Z,11.40
2023-01-27T23:38:32.598Z,11.90
2023-01-27T23:41:07.475Z,9.90
2023-01-27T23:43:35.049Z,10.60
2023-01-27T23:46:02.654Z,10.30
2023-01-27T23:48:30.420Z,9.00
2023-01-27T23:50:58.202Z,9.20
2023-01-27T23:53:25.775Z,10.30
2023-01-27T23:55:58.060Z,9.50
2023-01-27T23:58:26.072Z,11.00
